createdAt,value
2018-01-15T00:01:43.267Z,95.58
2018-01-15T00:04:10.841Z,95.74
2018-01-15T00:06:38.390Z,95.50
2018-01-15T00:09:05.941Z,95.62
2018-01-15T00:11:33.488Z,95.81
2018-01-15T00:14:01.075Z,95.85
2018-01-15T00:16:28.606Z,95.60
2018-01-15T00:18:56.198Z,95.91
2018-01-15T00:21:23.767Z,95.88
2018-01-15T00:23:51.332Z,95.60
2018-01-15T00:26:18.911Z,95.90
2018-01-15T00:28:46.472Z,95.72
2018-01-15T00:31:14.120Z,96.03
2018-01-15T00:33:42.453Z,95.49
2018-01-15T00:36:09.995Z,95.06
2018-01-15T00:38:37.529Z,94.68
2018-01-15T00:41:05.096Z,95.26
2018-01-15T00:43:32.680Z,95.35
2018-01-15T00:46:00.258Z,95.32
2018-01-15T00:48:27.832Z,94.98
2018-01-15T00:50:55.394Z,95.18
2018-01-15T00:53:22.959Z,95.28
2018-01-15T00:55:50.781Z,95.00
2018-01-15T00:58:18.451Z,94.78
2018-01-15T01:00:46.000Z,94.98
2018-01-15T01:03:13.510Z,94.74
2018-01-15T01:05:41.082Z,94.80
2018-01-15T01:08:08.670Z,94.72
2018-01-15T01:10:36.279Z,94.99
2018-01-15T01:13:03.841Z,95.30
2018-01-15T01:15:31.388Z,95.30
2018-01-15T01:17:58.964Z,95.27
2018-01-15T01:20:26.520Z,94.95
2018-01-15T01:22:54.399Z,94.67
2018-01-15T01:25:21.911Z,94.17
2018-01-15T01:27:49.641Z,94.11
2018-01-15T01:30:17.307Z,93.92
2018-01-15T01:32:44.817Z,93.73
2018-01-15T01:35:12.365Z,93.60
2018-01-15T01:37:39.936Z,93.64
2018-01-15T01:40:07.456Z,93.74
2018-01-15T01:42:34.980Z,94.28
2018-01-15T01:45:02.556Z,94.62
2018-01-15T01:47:30.081Z,94.54
2018-01-15T01:49:57.797Z,94.25
2018-01-15T01:52:25.365Z,94.18
2018-01-15T01:54:52.883Z,94.09
2018-01-15T01:57:20.455Z,94.48
2018-01-15T01:59:47.989Z,94.44
2018-01-15T02:02:15.702Z,94.15
2018-01-15T02:04:43.281Z,94.19
2018-01-15T02:07:10.857Z,94.62
2018-01-15T02:09:38.559Z,94.48
2018-01-15T02:12:06.172Z,94.62
2018-01-15T02:14:33.774Z,94.47
2018-01-15T02:17:01.292Z,94.75
2018-01-15T02:19:28.860Z,94.71
2018-01-15T02:21:56.399Z,94.84
2018-01-15T02:24:23.911Z,95.07
2018-01-15T02:26:51.482Z,95.10
2018-01-15T02:29:19.078Z,94.76
2018-01-15T02:31:46.656Z,94.71
2018-01-15T02:34:14.195Z,95.04
2018-01-15T02:36:41.708Z,95.28
2018-01-15T02:39:09.289Z,95.11
2018-01-15T02:41:36.830Z,94.97
2018-01-15T02:44:04.396Z,95.13
2018-01-15T02:46:31.952Z,95.05
2018-01-15T02:48:59.479Z,94.83
2018-01-15T02:51:27.053Z,95.04
2018-01-15T02:53:54.586Z,95.50
2018-01-15T02:56:22.150Z,94.69
2018-01-15T02:58:49.659Z,94.57
2018-01-15T03:01:17.205Z,94.22
2018-01-15T03:03:44.804Z,93.72
2018-01-15T03:06:12.314Z,93.52
2018-01-15T03:08:39.861Z,93.12
2018-01-15T03:11:07.424Z,92.87
2018-01-15T03:13:34.973Z,92.70
2018-01-15T03:16:02.545Z,92.65
2018-01-15T03:18:30.103Z,92.26
2018-01-15T03:20:57.643Z,92.28
2018-01-15T03:23:25.277Z,92.17
2018-01-15T03:25:52.857Z,92.10
2018-01-15T03:28:20.502Z,92.12
2018-01-15T03:30:48.078Z,92.17
2018-01-15T03:33:15.625Z,91.65
2018-01-15T03:35:43.213Z,91.61
2018-01-15T03:38:10.750Z,91.80
2018-01-15T03:40:38.303Z,91.78
2018-01-15T03:43:05.885Z,91.68
2018-01-15T03:45:33.437Z,91.56
2018-01-15T03:48:01.040Z,91.60
2018-01-15T03:50:29.008Z,91.45
2018-01-15T03:52:56.557Z,91.58
2018-01-15T03:55:24.109Z,91.26
2018-01-15T03:57:52.251Z,91.04
2018-01-15T04:00:19.880Z,91.14
2018-01-15T04:02:47.433Z,90.96
2018-01-15T04:05:15.037Z,91.11
2018-01-15T04:07:42.587Z,91.26
2018-01-15T04:10:10.145Z,90.74
2018-01-15T04:12:37.725Z,90.63
2018-01-15T04:15:05.257Z,90.56
2018-01-15T04:17:32.881Z,90.63
2018-01-15T04:20:00.390Z,90.71
2018-01-15T04:22:27.938Z,91.12
2018-01-15T04:24:55.607Z,90.61
2018-01-15T04:27:23.126Z,90.67
2018-01-15T04:29:50.980Z,91.02
2018-01-15T04:32:18.500Z,90.90
2018-01-15T04:34:46.023Z,90.87
2018-01-15T04:37:13.580Z,90.65
2018-01-15T04:39:41.192Z,90.83
2018-01-15T04:42:08.753Z,91.15
2018-01-15T04:44:36.300Z,91.40
2018-01-15T04:47:03.911Z,91.54
2018-01-15T04:49:31.545Z,91.22
2018-01-15T04:51:59.101Z,90.71
2018-01-15T04:54:26.690Z,90.65
2018-01-15T04:56:54.288Z,91.08
2018-01-15T04:59:21.803Z,90.95
2018-01-15T05:01:49.352Z,92.09
2018-01-15T05:04:16.964Z,92.14
2018-01-15T05:06:44.496Z,91.94
2018-01-15T05:09:12.065Z,91.88
2018-01-15T05:11:40.043Z,91.77
2018-01-15T05:14:07.601Z,91.52
2018-01-15T05:16:35.158Z,91.42
2018-01-15T05:19:02.704Z,91.36
2018-01-15T05:21:30.249Z,91.31
2018-01-15T05:23:57.838Z,91.09
2018-01-15T05:26:25.421Z,90.93
2018-01-15T05:28:53.034Z,90.30
2018-01-15T05:31:20.598Z,90.71
2018-01-15T05:33:48.163Z,90.69
2018-01-15T05:36:15.708Z,90.72
2018-01-15T05:38:43.265Z,91.22
2018-01-15T05:41:10.866Z,91.25
2018-01-15T05:43:38.392Z,91.08
2018-01-15T05:46:05.945Z,91.36
2018-01-15T05:48:33.516Z,91.66
2018-01-15T05:51:01.070Z,92.05
2018-01-15T05:53:28.615Z,91.80
2018-01-15T05:55:56.132Z,91.85
2018-01-15T05:58:23.738Z,92.77
2018-01-15T06:00:51.302Z,92.80
2018-01-15T06:03:18.848Z,92.87
2018-01-15T06:05:46.391Z,92.93
2018-01-15T06:08:13.969Z,93.02
2018-01-15T06:10:41.487Z,92.76
2018-01-15T06:13:09.033Z,92.79
2018-01-15T06:15:36.910Z,92.34
2018-01-15T06:18:04.481Z,92.10
2018-01-15T06:20:32.038Z,91.81
2018-01-15T06:22:59.974Z,91.71
2018-01-15T06:25:27.533Z,91.63
2018-01-15T06:27:55.113Z,91.22
2018-01-15T06:30:22.746Z,91.17
2018-01-15T06:32:50.270Z,90.84
2018-01-15T06:35:17.836Z,91.11
2018-01-15T06:37:45.353Z,90.99
2018-01-15T06:40:12.917Z,90.75
2018-01-15T06:42:40.525Z,90.93
2018-01-15T06:45:08.081Z,91.03
2018-01-15T06:47:35.592Z,90.99
2018-01-15T06:50:03.177Z,90.96
2018-01-15T06:52:30.691Z,91.03
2018-01-15T06:54:58.261Z,90.87
2018-01-15T06:57:25.846Z,91.11
2018-01-15T06:59:53.424Z,90.75
2018-01-15T07:02:20.938Z,91.03
2018-01-15T07:04:48.475Z,90.75
2018-01-15T07:07:16.034Z,90.75
2018-01-15T07:09:43.603Z,90.65
2018-01-15T07:12:11.115Z,90.75
2018-01-15T07:14:38.667Z,91.23
2018-01-15T07:17:06.180Z,90.95
2018-01-15T07:19:33.727Z,90.73
2018-01-15T07:22:01.288Z,91.10
2018-01-15T07:24:28.894Z,91.27
2018-01-15T07:26:56.426Z,91.73
2018-01-15T07:29:23.949Z,91.82
2018-01-15T07:31:51.516Z,92.04
2018-01-15T07:34:19.097Z,91.88
2018-01-15T07:36:46.679Z,92.40
2018-01-15T07:39:14.229Z,92.42
2018-01-15T07:41:41.818Z,92.52
2018-01-15T07:44:09.370Z,92.53
2018-01-15T07:46:36.978Z,92.38
2018-01-15T07:49:04.533Z,92.72
2018-01-15T07:51:32.077Z,91.96
2018-01-15T07:53:59.735Z,92.31
2018-01-15T07:56:27.348Z,92.92
2018-01-15T07:58:54.913Z,92.88
2018-01-15T08:01:22.452Z,92.68
2018-01-15T08:03:49.982Z,92.88
2018-01-15T08:06:17.524Z,93.40
2018-01-15T08:08:45.106Z,92.88
2018-01-15T08:11:12.731Z,93.40
2018-01-15T08:13:40.322Z,93.33
2018-01-15T08:16:07.895Z,92.85
2018-01-15T08:18:35.454Z,92.78
2018-01-15T08:21:03.004Z,92.56
2018-01-15T08:23:30.542Z,92.88
2018-01-15T08:25:58.082Z,92.44
2018-01-15T08:28:25.684Z,92.69
2018-01-15T08:30:53.314Z,92.62
2018-01-15T08:33:20.866Z,92.56
2018-01-15T08:35:48.440Z,92.21
2018-01-15T08:38:16.138Z,92.35
2018-01-15T08:40:43.687Z,92.42
2018-01-15T08:43:11.285Z,92.59
2018-01-15T08:45:38.808Z,92.63
2018-01-15T08:48:06.324Z,92.63
2018-01-15T08:50:33.902Z,92.72
2018-01-15T08:53:01.428Z,92.82
2018-01-15T08:55:29.025Z,93.05
2018-01-15T08:57:56.568Z,92.46
2018-01-15T09:00:24.084Z,92.79
2018-01-15T09:02:51.689Z,93.12
2018-01-15T09:05:19.333Z,93.57
2018-01-15T09:07:46.875Z,93.45
2018-01-15T09:10:14.420Z,92.71
2018-01-15T09:12:41.999Z,92.77
2018-01-15T09:15:09.508Z,92.58
2018-01-15T09:17:37.060Z,92.38
2018-01-15T09:20:04.773Z,93.48
2018-01-15T09:22:32.311Z,93.13
2018-01-15T09:24:59.866Z,93.79
2018-01-15T09:27:27.573Z,93.46
2018-01-15T09:29:55.491Z,93.18
2018-01-15T09:32:23.042Z,93.23
2018-01-15T09:34:50.571Z,93.16
2018-01-15T09:37:18.150Z,92.98
2018-01-15T09:39:45.750Z,92.81
2018-01-15T09:42:13.511Z,93.75
2018-01-15T09:44:41.069Z,92.66
2018-01-15T09:47:08.592Z,92.58
2018-01-15T09:49:36.177Z,93.18
2018-01-15T09:52:03.718Z,93.64
2018-01-15T09:54:31.294Z,93.79
2018-01-15T09:56:59.274Z,93.48
2018-01-15T09:59:26.835Z,93.64
2018-01-15T10:01:54.447Z,93.28
2018-01-15T10:04:22.024Z,93.33
2018-01-15T10:06:49.684Z,93.59
2018-01-15T10:09:17.237Z,93.70
2018-01-15T10:11:44.752Z,93.20
2018-01-15T10:14:12.412Z,93.57
2018-01-15T10:16:39.972Z,93.60
2018-01-15T10:19:07.517Z,93.06
2018-01-15T10:21:35.111Z,92.86
2018-01-15T10:24:02.614Z,93.05
2018-01-15T10:26:30.158Z,93.07
2018-01-15T10:28:57.807Z,93.40
2018-01-15T10:31:25.311Z,93.16
2018-01-15T10:33:52.922Z,93.41
2018-01-15T10:36:20.476Z,93.20
2018-01-15T10:38:47.987Z,93.59
2018-01-15T10:41:15.556Z,93.17
2018-01-15T10:43:43.101Z,92.85
2018-01-15T10:46:10.750Z,92.44
2018-01-15T10:48:38.315Z,91.98
2018-01-15T10:51:05.861Z,92.05
2018-01-15T10:53:33.411Z,92.86
2018-01-15T10:56:01.007Z,92.59
2018-01-15T10:58:28.549Z,92.80
2018-01-15T11:00:56.104Z,92.35
2018-01-15T11:03:23.636Z,91.52
2018-01-15T11:05:51.228Z,91.61
2018-01-15T11:08:18.914Z,91.40
2018-01-15T11:10:46.582Z,91.43
2018-01-15T11:13:14.120Z,91.03
2018-01-15T11:15:41.703Z,90.87
2018-01-15T11:18:09.220Z,90.90
2018-01-15T11:20:36.774Z,90.65
2018-01-15T11:23:04.321Z,90.44
2018-01-15T11:25:31.899Z,90.25
2018-01-15T11:27:59.477Z,89.56
2018-01-15T11:30:27.025Z,89.68
2018-01-15T11:32:54.573Z,89.47
2018-01-15T11:35:22.162Z,89.19
2018-01-15T11:37:49.717Z,89.08
2018-01-15T11:40:17.228Z,88.84
2018-01-15T11:42:44.768Z,88.84
2018-01-15T11:45:12.312Z,88.52
2018-01-15T11:47:39.879Z,89.02
2018-01-15T11:50:07.425Z,88.42
2018-01-15T11:52:34.992Z,87.18
2018-01-15T11:55:02.541Z,86.82
2018-01-15T11:57:30.121Z,86.67
2018-01-15T11:59:57.631Z,87.30
2018-01-15T12:02:25.186Z,86.77
2018-01-15T12:04:52.733Z,85.97
2018-01-15T12:07:20.285Z,86.23
2018-01-15T12:09:47.833Z,86.02
2018-01-15T12:12:15.347Z,85.69
2018-01-15T12:14:42.880Z,85.58
2018-01-15T12:17:10.374Z,85.00
2018-01-15T12:19:38.007Z,84.66
2018-01-15T12:22:05.544Z,84.29
2018-01-15T12:24:33.102Z,84.64
2018-01-15T12:27:00.738Z,85.46
2018-01-15T12:29:28.629Z,85.69
2018-01-15T12:31:56.165Z,86.60
2018-01-15T12:34:23.675Z,86.90
2018-01-15T12:36:51.299Z,87.43
2018-01-15T12:39:19.819Z,87.91
2018-01-15T12:41:47.356Z,87.98
2018-01-15T12:44:14.891Z,88.07
2018-01-15T12:46:42.795Z,87.60
2018-01-15T12:49:10.306Z,87.24
2018-01-15T12:51:37.844Z,86.51
2018-01-15T12:54:05.408Z,87.19
2018-01-15T12:56:32.986Z,86.39
2018-01-15T12:59:00.836Z,86.82
2018-01-15T13:01:28.385Z,86.81
2018-01-15T13:03:55.898Z,86.59
2018-01-15T13:06:23.513Z,86.52
2018-01-15T13:09:07.850Z,86.91
2018-01-15T13:11:35.581Z,87.03
2018-01-15T13:14:03.170Z,87.24
2018-01-15T13:16:30.699Z,87.73
2018-01-15T13:18:58.216Z,88.32
2018-01-15T13:21:25.777Z,88.63
2018-01-15T13:23:53.392Z,89.18
2018-01-15T13:26:20.940Z,89.82
2018-01-15T13:28:48.452Z,91.09
2018-01-15T13:31:16.053Z,92.18
2018-01-15T13:33:43.596Z,92.40
2018-01-15T13:36:11.162Z,92.78
2018-01-15T13:38:38.715Z,93.09
2018-01-15T13:41:06.298Z,93.93
2018-01-15T13:43:33.835Z,94.79
2018-01-15T13:46:01.428Z,95.02
2018-01-15T13:48:28.934Z,94.93
2018-01-15T13:50:56.481Z,95.16
2018-01-15T13:53:24.024Z,94.85
2018-01-15T13:55:51.573Z,95.41
2018-01-15T13:58:19.170Z,94.69
2018-01-15T14:00:46.715Z,94.50
2018-01-15T14:03:14.301Z,95.18
2018-01-15T14:05:41.871Z,96.07
2018-01-15T14:08:09.813Z,95.37
2018-01-15T14:10:37.377Z,95.36
2018-01-15T14:13:04.891Z,95.39
2018-01-15T14:15:32.423Z,95.31
2018-01-15T14:18:00.341Z,95.29
2018-01-15T14:20:27.899Z,95.85
2018-01-15T14:22:55.514Z,95.26
2018-01-15T14:25:23.430Z,95.37
2018-01-15T14:27:51.001Z,95.78
2018-01-15T14:30:18.634Z,95.98
2018-01-15T14:32:46.214Z,96.35
2018-01-15T14:35:13.773Z,95.85
2018-01-15T14:37:41.295Z,96.34
2018-01-15T14:40:08.981Z,96.51
2018-01-15T14:42:36.566Z,97.11
2018-01-15T14:45:04.103Z,96.96
2018-01-15T14:47:31.642Z,97.13
2018-01-15T14:49:59.189Z,98.35
2018-01-15T14:52:26.765Z,97.99
2018-01-15T14:54:54.316Z,98.22
2018-01-15T14:57:22.288Z,98.05
2018-01-15T14:59:49.837Z,98.14
2018-01-15T15:02:17.341Z,98.45
2018-01-15T15:04:44.986Z,98.79
2018-01-15T15:07:12.498Z,98.69
2018-01-15T15:09:40.038Z,98.82
2018-01-15T15:12:07.583Z,99.20
2018-01-15T15:14:35.141Z,99.09
2018-01-15T15:17:02.685Z,99.44
2018-01-15T15:19:30.271Z,99.56
2018-01-15T15:21:57.875Z,99.43
2018-01-15T15:24:25.460Z,99.81
2018-01-15T15:26:52.976Z,99.60
2018-01-15T15:29:20.536Z,99.68
2018-01-15T15:31:48.080Z,99.67
2018-01-15T15:34:15.988Z,100.00
2018-01-15T15:36:43.507Z,99.97
2018-01-15T15:39:11.789Z,100.00
2018-01-15T15:41:39.340Z,100.00
2018-01-15T15:44:06.884Z,99.95
2018-01-15T15:46:34.638Z,99.91
2018-01-15T15:49:02.416Z,99.95
2018-01-15T15:51:29.964Z,99.74
2018-01-15T15:53:57.477Z,99.99
2018-01-15T15:56:25.071Z,100.00
2018-01-15T15:58:52.631Z,100.00
2018-01-15T16:01:20.198Z,100.00
2018-01-15T16:03:47.812Z,100.00
2018-01-15T16:06:15.361Z,100.00
2018-01-15T16:08:42.909Z,100.00
2018-01-15T16:11:10.766Z,100.00
2018-01-15T16:13:38.317Z,100.00
2018-01-15T16:16:05.847Z,100.00
2018-01-15T16:18:33.456Z,100.00
2018-01-15T16:21:01.044Z,100.00
2018-01-15T16:23:28.562Z,100.00
2018-01-15T16:25:56.211Z,100.00
2018-01-15T16:28:23.770Z,100.00
2018-01-15T16:30:51.353Z,100.00
2018-01-15T16:33:18.956Z,100.00
2018-01-15T16:35:46.471Z,100.00
2018-01-15T16:38:13.983Z,100.00
2018-01-15T16:40:41.574Z,100.00
2018-01-15T16:43:09.188Z,100.00
2018-01-15T16:45:36.741Z,100.00
2018-01-15T16:48:04.283Z,100.00
2018-01-15T16:50:31.946Z,100.00
2018-01-15T16:52:59.520Z,100.00
2018-01-15T16:55:27.077Z,100.00
2018-01-15T16:57:54.655Z,100.00
2018-01-15T17:00:22.212Z,99.66
2018-01-15T17:02:49.775Z,100.00
2018-01-15T17:05:17.319Z,99.97
2018-01-15T17:07:44.946Z,99.79
2018-01-15T17:10:12.579Z,100.00
2018-01-15T17:12:40.125Z,99.85
2018-01-15T17:15:07.745Z,100.00
2018-01-15T17:17:35.268Z,100.00
2018-01-15T17:20:02.818Z,99.90
2018-01-15T17:22:30.392Z,99.71
2018-01-15T17:24:57.936Z,99.59
2018-01-15T17:27:25.460Z,99.16
2018-01-15T17:29:53.111Z,98.78
2018-01-15T17:32:20.686Z,99.07
2018-01-15T17:34:48.196Z,98.97
2018-01-15T17:37:15.821Z,97.87
2018-01-15T17:39:43.341Z,97.93
2018-01-15T17:42:10.907Z,97.84
2018-01-15T17:44:38.655Z,98.40
2018-01-15T17:47:06.331Z,98.90
2018-01-15T17:49:33.888Z,98.09
2018-01-15T17:52:01.469Z,97.45
2018-01-15T17:54:29.018Z,96.80
2018-01-15T17:56:56.530Z,98.18
2018-01-15T17:59:24.097Z,98.67
2018-01-15T18:01:51.758Z,97.44
2018-01-15T18:04:19.305Z,97.62
2018-01-15T18:06:46.836Z,98.18
2018-01-15T18:09:14.381Z,98.16
2018-01-15T18:11:41.948Z,98.46
2018-01-15T18:14:09.873Z,98.03
2018-01-15T18:16:37.392Z,98.30
2018-01-15T18:19:04.908Z,98.36
2018-01-15T18:21:32.499Z,98.61
2018-01-15T18:24:00.022Z,98.69
2018-01-15T18:26:27.571Z,98.01
2018-01-15T18:28:55.171Z,98.05
2018-01-15T18:31:22.824Z,98.48
2018-01-15T18:33:50.394Z,98.30
2018-01-15T18:36:17.978Z,98.69
2018-01-15T18:38:45.549Z,98.35
2018-01-15T18:41:13.070Z,98.99
2018-01-15T18:43:40.757Z,98.67
2018-01-15T18:46:08.298Z,98.06
2018-01-15T18:48:35.822Z,98.52
2018-01-15T18:51:03.409Z,99.47
2018-01-15T18:53:31.000Z,98.02
2018-01-15T18:55:58.886Z,97.67
2018-01-15T18:58:26.438Z,98.12
2018-01-15T19:00:53.935Z,99.06
2018-01-15T19:03:21.441Z,98.46
2018-01-15T19:05:48.975Z,98.79
2018-01-15T19:08:16.552Z,98.88
2018-01-15T19:10:44.295Z,98.71
2018-01-15T19:13:11.853Z,99.13
2018-01-15T19:15:39.392Z,99.25
2018-01-15T19:18:06.929Z,99.47
2018-01-15T19:20:34.513Z,99.74
2018-01-15T19:23:02.065Z,99.49
2018-01-15T19:25:29.599Z,99.09
2018-01-15T19:27:57.242Z,99.40
2018-01-15T19:30:24.900Z,99.71
2018-01-15T19:32:52.684Z,100.00
2018-01-15T19:38:22.458Z,100.00
2018-01-15T19:40:50.101Z,100.00
2018-01-15T19:49:09.367Z,100.00
2018-01-15T19:51:42.470Z,100.00
2018-01-15T19:54:15.653Z,100.00
2018-01-15T19:56:48.781Z,100.00
2018-01-15T19:59:21.977Z,100.00
2018-01-15T20:01:55.170Z,100.00
2018-01-15T20:07:35.391Z,100.00
2018-01-15T20:10:08.708Z,100.00
2018-01-15T20:12:36.464Z,100.00
2018-01-15T20:15:04.027Z,99.72
2018-01-15T20:17:31.740Z,99.93
2018-01-15T20:19:59.318Z,100.00
2018-01-15T20:22:26.989Z,99.83
2018-01-15T20:24:54.851Z,99.58
2018-01-15T20:27:22.443Z,99.33
2018-01-15T20:29:49.985Z,99.00
2018-01-15T20:32:17.671Z,99.13
2018-01-15T20:34:45.226Z,100.00
2018-01-15T20:37:12.731Z,99.81
2018-01-15T20:39:40.290Z,99.80
2018-01-15T20:42:08.193Z,98.82
2018-01-15T20:44:35.745Z,100.00
2018-01-15T20:47:03.285Z,99.44
2018-01-15T20:49:30.885Z,99.87
2018-01-15T20:51:58.424Z,100.00
2018-01-15T20:54:25.935Z,100.00
2018-01-15T20:56:53.505Z,100.00
2018-01-15T20:59:21.065Z,99.89
2018-01-15T21:01:48.765Z,99.11
2018-01-15T21:04:16.309Z,100.00
2018-01-15T21:06:43.836Z,100.00
2018-01-15T21:09:11.433Z,100.00
2018-01-15T21:11:38.952Z,100.00
2018-01-15T21:14:06.521Z,100.00
2018-01-15T21:16:34.103Z,100.00
2018-01-15T21:19:01.677Z,100.00
2018-01-15T21:21:29.248Z,100.00
2018-01-15T21:23:56.784Z,100.00
2018-01-15T21:26:24.324Z,100.00
2018-01-15T21:28:51.967Z,100.00
2018-01-15T21:31:19.584Z,100.00
2018-01-15T21:33:47.104Z,100.00
2018-01-15T21:36:14.648Z,100.00
2018-01-15T21:38:42.249Z,100.00
2018-01-15T21:41:09.812Z,100.00
2018-01-15T21:43:37.337Z,100.00
2018-01-15T21:46:04.927Z,100.00
2018-01-15T21:48:32.520Z,100.00
2018-01-15T21:51:00.077Z,100.00
2018-01-15T21:53:27.623Z,100.00
2018-01-15T21:55:55.163Z,100.00
2018-01-15T21:58:22.750Z,100.00
2018-01-15T22:00:50.258Z,100.00
2018-01-15T22:03:17.807Z,100.00
2018-01-15T22:05:45.343Z,100.00
2018-01-15T22:08:12.877Z,100.00
2018-01-15T22:10:40.405Z,100.00
2018-01-15T22:13:07.956Z,100.00
2018-01-15T22:15:35.760Z,100.00
2018-01-15T22:18:03.437Z,100.00
2018-01-15T22:20:30.989Z,100.00
2018-01-15T22:22:58.922Z,100.00
2018-01-15T22:25:26.473Z,100.00
2018-01-15T22:27:53.997Z,100.00
2018-01-15T22:30:21.613Z,100.00
2018-01-15T22:32:49.148Z,100.00
2018-01-15T22:35:16.742Z,100.00
2018-01-15T22:37:44.321Z,100.00
2018-01-15T22:40:11.899Z,100.00
2018-01-15T22:42:39.452Z,100.00
2018-01-15T22:45:07.031Z,100.00
2018-01-15T22:47:34.572Z,100.00
2018-01-15T22:50:02.101Z,100.00
2018-01-15T22:52:29.674Z,100.00
2018-01-15T22:54:57.191Z,100.00
2018-01-15T22:57:24.770Z,100.00
2018-01-15T22:59:52.385Z,100.00
2018-01-15T23:02:19.899Z,100.00
2018-01-15T23:04:47.453Z,100.00
2018-01-15T23:07:15.026Z,100.00
2018-01-15T23:09:42.589Z,100.00
2018-01-15T23:12:10.188Z,100.00
2018-01-15T23:14:37.740Z,100.00
2018-01-15T23:17:05.297Z,100.00
2018-01-15T23:19:32.958Z,100.00
2018-01-15T23:22:00.542Z,100.00
2018-01-15T23:24:28.144Z,100.00
2018-01-15T23:26:55.693Z,100.00
2018-01-15T23:29:23.254Z,100.00
2018-01-15T23:31:50.790Z,100.00
2018-01-15T23:34:18.353Z,100.00
2018-01-15T23:36:45.944Z,100.00
2018-01-15T23:39:13.489Z,100.00
2018-01-15T23:41:41.004Z,100.00
2018-01-15T23:44:08.539Z,100.00
2018-01-15T23:46:36.109Z,100.00
2018-01-15T23:49:03.752Z,99.98
2018-01-15T23:51:31.264Z,99.79
2018-01-15T23:53:58.780Z,100.00
2018-01-15T23:56:26.354Z,99.66
2018-01-15T23:58:53.905Z,99.69
